< < Back
Terminal Aerodrome Forecast


Current Version              Previous Versions:   1  2  3  4  5  6  7  8  9  

Terminal Aerodrome Forecast

121
FTUS42 KJAX 021402 AAA
TAFGNV
TAF AMD
KGNV 021402Z 0214/0312 17006KT P6SM VCSH SCT012 OVC035
      TEMPO 0214/0216 5SM -SHRA BKN008 OVC012
     FM021600 20010G17KT P6SM VCTS OVC030CB
     FM021800 22020G25KT P6SM SCT030 BKN060
     FM030200 22010KT P6SM SCT020 BKN040=



Latest METAR

849
SAUS70 KWBC 021400 RRH
MTRGNV
METAR KGNV 021353Z 16004KT 10SM BKN008 BKN060 26/23 A2990 RMK AO2 SLP122
T02560233 $


USA.gov is the U.S. government's official web portal to all federal, state and local government web resources and services.